Time;durP1;ratioP1;P1;durP2;ratioP2;P2;SDS_P1;SDS_P2;PMS_P1;PMS_P2;Temp;Humidity;BMP_temperature;BMP_pressure;BME280_temperature;BME280_humidity;BME280_pressure;Samples;Min_cycle;Max_cycle;Signal;HPM_P1;HPM_P2
2022/03/10 00:02:06;;;;;;;45.65;25.92;;;;;;;0.49;70.89;102360.69;4935555;29;20031;-72
2022/03/10 00:04:32;;;;;;;48.90;26.15;;;;;;;0.15;72.24;102311.41;4935801;29;20027;-71
2022/03/10 00:06:58;;;;;;;48.33;27.13;;;;;;;0.31;71.99;102349.59;4935406;29;20046;-72
2022/03/10 00:09:24;;;;;;;47.40;26.30;;;;;;;0.15;72.88;102334.28;4935556;29;20031;-72
2022/03/10 00:11:49;;;;;;;46.50;25.30;;;;;;;0.23;72.49;102357.19;4935428;28;20401;-72
2022/03/10 00:14:14;;;;;;;44.35;26.90;;;;;;;0.29;72.28;102369.91;4935296;28;20509;-72
2022/03/10 00:16:40;;;;;;;48.20;27.20;;;;;;;0.11;73.15;102342.75;4935243;28;20065;-73
2022/03/10 00:19:05;;;;;;;46.22;26.90;;;;;;;-0.02;73.12;102328.28;4935552;28;20059;-74
2022/03/10 00:21:31;;;;;;;51.67;26.95;;;;;;;0.03;73.37;102339.31;4935325;29;20036;-72
2022/03/10 00:23:57;;;;;;;49.60;27.58;;;;;;;0.02;74.02;102352.00;4934674;29;20401;-73
2022/03/10 00:26:22;;;;;;;52.42;28.17;;;;;;;0.06;74.33;102363.88;4935516;28;20023;-72
2022/03/10 00:28:47;;;;;;;48.42;27.42;;;;;;;0.04;74.25;102366.41;4935217;29;20035;-72
2022/03/10 00:31:13;;;;;;;56.90;28.67;;;;;;;-0.01;73.86;102363.81;4935018;29;20071;-73
2022/03/10 00:33:38;;;;;;;53.35;29.65;;;;;;;-0.12;73.69;102351.91;4935293;29;20098;-72
2022/03/10 00:36:05;;;;;;;52.97;27.90;;;;;;;-0.11;74.36;102357.00;4935172;29;20035;-72
2022/03/10 00:38:30;;;;;;;50.58;27.75;;;;;;;-0.04;73.89;102368.06;4935084;29;20027;-73
2022/03/10 00:40:56;;;;;;;49.38;27.17;;;;;;;-0.06;73.65;102373.13;4966071;28;20031;-74
2022/03/10 00:43:21;;;;;;;50.42;27.50;;;;;;;-0.06;73.96;102367.19;4935227;29;20031;-72
2022/03/10 00:45:46;;;;;;;47.30;27.85;;;;;;;-0.07;74.21;102373.13;4935271;29;20032;-74
2022/03/10 00:48:12;;;;;;;51.28;27.38;;;;;;;-0.19;73.90;102353.59;4935015;29;20038;-73
2022/03/10 00:50:37;;;;;;;55.20;27.88;;;;;;;-0.12;74.20;102375.63;4935254;29;20070;-72
2022/03/10 00:53:02;;;;;;;48.05;27.40;;;;;;;-0.20;75.03;102377.25;4934952;28;20114;-73
2022/03/10 00:55:29;;;;;;;51.42;28.30;;;;;;;-0.45;75.76;102345.81;4934866;29;20027;-74
2022/03/10 00:57:54;;;;;;;51.78;27.25;;;;;;;-0.29;75.53;102367.06;4935059;29;20039;-72
2022/03/10 01:00:22;;;;;;;54.22;28.63;;;;;;;-0.35;75.94;102372.94;4934975;29;20114;-72
2022/03/10 01:02:48;;;;;;;48.08;28.08;;;;;;;-0.54;75.99;102355.88;4934931;28;20036;-72
2022/03/10 01:05:13;;;;;;;48.33;28.88;;;;;;;-0.51;76.49;102370.28;4935205;29;20034;-73
2022/03/10 01:07:38;;;;;;;53.83;28.30;;;;;;;-0.69;76.72;102349.03;4935056;28;20441;-72
2022/03/10 01:10:06;;;;;;;48.88;28.38;;;;;;;-0.64;76.84;102365.13;4934835;28;20032;-72
2022/03/10 01:12:32;;;;;;;52.10;28.92;;;;;;;-0.65;76.65;102365.09;4934962;29;20034;-73
2022/03/10 01:14:58;;;;;;;50.22;28.88;;;;;;;-0.67;76.91;102360.03;4934942;29;20028;-73
2022/03/10 01:17:24;;;;;;;48.00;27.20;;;;;;;-0.69;77.06;102348.13;4934935;29;20035;-72
2022/03/10 01:19:49;;;;;;;52.20;27.60;;;;;;;-0.57;76.77;102367.72;4934830;29;20036;-74
2022/03/10 01:22:16;;;;;;;50.25;28.98;;;;;;;-0.50;76.67;102374.50;4934836;29;20396;-72
2022/03/10 01:24:41;;;;;;;50.42;28.55;;;;;;;-0.48;76.36;102373.69;4934519;29;20027;-72
2022/03/10 01:27:08;;;;;;;53.42;28.83;;;;;;;-0.52;77.04;102371.13;4934784;29;20035;-72
2022/03/10 01:29:33;;;;;;;51.00;28.63;;;;;;;-0.53;77.01;102374.50;4934736;29;20147;-72
2022/03/10 01:31:58;;;;;;;50.88;28.65;;;;;;;-0.71;77.03;102345.59;4934698;29;20084;-74
2022/03/10 01:34:24;;;;;;;53.85;29.45;;;;;;;-0.56;76.92;102372.78;4934790;29;20366;-72
2022/03/10 01:36:49;;;;;;;53.22;29.45;;;;;;;-0.54;76.91;102365.19;4938505;29;20036;-73
2022/03/10 01:39:14;;;;;;;51.88;27.75;;;;;;;-0.91;77.19;102304.88;4937996;29;20027;-73
2022/03/10 01:41:40;;;;;;;52.15;27.95;;;;;;;-0.75;77.74;102343.03;4938143;29;20068;-72
2022/03/10 01:44:08;;;;;;;50.88;29.88;;;;;;;-0.69;77.87;102365.91;4938124;29;20063;-72
2022/03/10 01:46:34;;;;;;;55.90;29.05;;;;;;;-0.78;78.41;102363.31;4938229;29;20396;-72
2022/03/10 01:49:00;;;;;;;53.95;29.00;;;;;;;-0.73;77.85;102370.09;4938133;29;20042;-72
2022/03/10 01:51:26;;;;;;;51.60;28.90;;;;;;;-0.90;78.22;102352.19;4938185;29;20118;-73
2022/03/10 01:53:52;;;;;;;54.05;30.13;;;;;;;-0.91;78.43;102344.59;4937958;29;20028;-72
2022/03/10 01:56:19;;;;;;;54.05;29.08;;;;;;;-0.84;78.81;102365.78;4937996;29;20039;-73
2022/03/10 01:58:46;;;;;;;51.20;29.38;;;;;;;-0.92;78.89;102348.81;4937856;29;20042;-72
2022/03/10 02:01:11;;;;;;;54.83;29.35;;;;;;;-0.87;79.25;102361.53;4937919;29;20488;-73
2022/03/10 02:03:38;;;;;;;51.72;28.67;;;;;;;-0.87;79.02;102369.16;4937819;29;20102;-72
2022/03/10 02:06:04;;;;;;;50.38;28.73;;;;;;;-1.02;79.13;102347.03;4937592;29;20046;-72
2022/03/10 02:11:13;;;;;;;50.67;28.63;;;;;;;-0.93;79.35;102361.47;4938035;29;20118;-81
2022/03/10 02:13:39;;;;;;;53.17;29.83;;;;;;;-0.94;79.57;102355.56;4937642;29;20059;-83
2022/03/10 02:18:52;;;;;;;56.85;29.92;;;;;;;-1.11;80.45;102344.41;4937697;29;20035;-73
2022/03/10 02:21:18;;;;;;;56.00;28.70;;;;;;;-1.01;79.85;102350.41;4937556;29;20032;-79
2022/03/10 02:23:44;;;;;;;55.13;28.92;;;;;;;-0.92;79.48;102358.94;4937433;29;20028;-83
2022/03/10 02:26:11;;;;;;;56.60;30.20;;;;;;;-0.92;79.47;102358.94;4937889;29;20032;-84
2022/03/10 02:28:37;;;;;;;56.95;29.63;;;;;;;-1.26;79.15;102293.59;4937486;29;20174;-82
2022/03/10 02:31:02;;;;;;;50.17;28.20;;;;;;;-0.88;79.11;102357.31;4937281;28;20532;-83
2022/03/10 02:33:28;;;;;;;52.15;29.25;;;;;;;-1.06;79.15;102335.19;4937061;29;20079;-79
2022/03/10 02:35:53;;;;;;;52.20;29.50;;;;;;;-1.01;79.50;102346.19;4937367;29;20023;-84
2022/03/10 02:38:19;;;;;;;52.65;29.85;;;;;;;-1.03;79.80;102354.63;4937297;28;20055;-83
2022/03/10 02:40:46;;;;;;;52.47;30.05;;;;;;;-0.99;79.81;102358.88;4936802;29;20126;-83
2022/03/10 02:43:11;;;;;;;53.97;29.08;;;;;;;-1.12;79.97;102335.09;4937191;29;20023;-84
2022/03/10 02:45:36;;;;;;;52.63;28.88;;;;;;;-1.09;79.63;102344.41;4937359;29;20050;-81
2022/03/10 02:48:02;;;;;;;56.30;29.15;;;;;;;-1.08;80.21;102349.53;4967040;28;20031;-83
2022/03/10 02:50:28;;;;;;;52.10;29.58;;;;;;;-1.16;80.48;102353.66;4937084;29;20024;-79
2022/03/10 02:52:53;;;;;;;51.90;29.58;;;;;;;-1.19;80.52;102349.41;4937086;29;20035;-83
2022/03/10 02:55:19;;;;;;;53.42;29.38;;;;;;;-1.22;80.60;102356.97;4936879;29;20107;-82
2022/03/10 02:57:44;;;;;;;53.90;28.88;;;;;;;-1.17;80.26;102357.03;4936881;29;20039;-84
2022/03/10 03:00:10;;;;;;;55.67;30.75;;;;;;;-1.55;80.34;102291.63;4936765;29;20028;-77
2022/03/10 03:02:36;;;;;;;54.10;29.55;;;;;;;-1.14;80.34;102356.22;4936458;28;20107;-82
2022/03/10 03:05:02;;;;;;;53.80;28.77;;;;;;;-1.17;80.36;102355.34;4936935;28;20059;-80
2022/03/10 03:07:27;;;;;;;53.38;28.23;;;;;;;-1.25;80.02;102345.97;4937064;29;20067;-79
2022/03/10 03:09:52;;;;;;;49.38;27.55;;;;;;;-1.20;80.27;102355.31;4936366;29;20043;-73
2022/03/10 03:12:18;;;;;;;55.60;29.13;;;;;;;-1.52;80.23;102306.84;4936628;28;20097;-81
2022/03/10 03:14:43;;;;;;;49.63;27.83;;;;;;;-1.22;79.80;102348.53;4936529;29;20027;-74
2022/03/10 03:17:09;;;;;;;49.72;28.15;;;;;;;-1.57;80.36;102308.47;4936380;29;20087;-82
2022/03/10 03:19:34;;;;;;;55.20;28.80;;;;;;;-1.28;79.85;102343.38;4936430;29;20032;-84
2022/03/10 03:21:59;;;;;;;53.97;29.75;;;;;;;-1.35;79.44;102328.97;4936433;29;20034;-82
2022/03/10 03:24:25;;;;;;;48.97;28.98;;;;;;;-1.18;79.72;102363.78;4936236;29;20038;-77
2022/03/10 03:26:50;;;;;;;51.38;28.10;;;;;;;-1.15;79.36;102368.03;4936455;29;20114;-80
2022/03/10 03:29:16;;;;;;;50.85;28.60;;;;;;;-1.16;78.95;102371.41;4936341;29;20053;-80
2022/03/10 03:31:42;;;;;;;58.40;29.58;;;;;;;-1.23;79.51;102357.81;4936051;29;20048;-73
2022/03/10 03:34:10;;;;;;;52.88;28.20;;;;;;;-1.28;79.25;102354.41;4936036;29;20082;-77
2022/03/10 03:36:40;;;;;;;49.17;27.48;;;;;;;-1.18;79.65;102383.19;4936259;29;20039;-78
2022/03/10 03:39:06;;;;;;;53.42;28.85;;;;;;;-1.27;79.80;102371.31;4936099;29;20067;-73
2022/03/10 03:41:32;;;;;;;51.95;28.45;;;;;;;-1.34;80.07;102359.38;4935954;29;20059;-81
2022/03/10 03:43:57;;;;;;;49.92;28.20;;;;;;;-1.33;80.41;102375.44;4936053;29;20031;-82
2022/03/10 03:46:23;;;;;;;50.63;28.20;;;;;;;-1.52;80.89;102351.59;4936101;29;20063;-82
2022/03/10 03:48:48;;;;;;;52.28;29.23;;;;;;;-1.40;80.91;102374.50;4935886;29;20043;-81
2022/03/10 03:51:14;;;;;;;56.20;28.20;;;;;;;-1.38;80.60;102382.97;4935966;29;20042;-78
2022/03/10 03:53:39;;;;;;;50.65;27.73;;;;;;;-1.38;80.30;102393.13;4935939;29;20389;-78
2022/03/10 03:56:04;;;;;;;54.90;28.02;;;;;;;-1.38;80.68;102393.13;4935757;29;20036;-72
2022/03/10 03:58:30;;;;;;;53.67;27.48;;;;;;;-1.77;80.45;102323.47;4934769;28;20036;-72
2022/03/10 04:00:55;;;;;;;52.30;28.80;;;;;;;-1.46;80.99;102387.97;4935913;28;20031;-72
2022/03/10 04:03:20;;;;;;;51.38;29.02;;;;;;;-1.44;81.03;102393.06;4935775;29;20473;-73
2022/03/10 04:05:46;;;;;;;52.65;27.92;;;;;;;-1.55;80.47;102375.22;4935839;29;20039;-75
2022/03/10 04:08:12;;;;;;;54.30;30.15;;;;;;;-1.47;81.46;102396.41;4935859;28;20488;-74
2022/03/10 04:10:38;;;;;;;52.13;26.63;;;;;;;-1.45;81.04;102399.81;4935426;29;20499;-75
2022/03/10 04:13:05;;;;;;;50.65;27.95;;;;;;;-1.46;81.77;102409.94;4935507;29;20038;-75
2022/03/10 04:15:31;;;;;;;50.55;27.52;;;;;;;-1.54;81.43;102392.09;4935444;29;20028;-74
2022/03/10 04:17:56;;;;;;;53.88;27.52;;;;;;;-1.63;81.30;102368.34;4935568;29;20090;-73
2022/03/10 04:20:22;;;;;;;49.53;27.23;;;;;;;-1.60;81.59;102378.50;4950182;28;20307;-74
2022/03/10 04:22:47;;;;;;;49.30;27.48;;;;;;;-1.73;81.89;102367.38;4935682;29;20031;-73
2022/03/10 04:25:13;;;;;;;48.17;26.92;;;;;;;-1.62;82.25;102393.69;4935322;29;20497;-73
2022/03/10 04:27:40;;;;;;;56.17;28.50;;;;;;;-1.96;82.74;102344.31;4935383;29;20067;-72
2022/03/10 04:30:06;;;;;;;53.33;27.65;;;;;;;-1.80;82.58;102366.44;4935445;29;20031;-73
2022/03/10 04:32:50;;;;;;;52.47;26.45;;;;;;;-1.65;81.90;102400.41;4935232;29;20043;-76
2022/03/10 04:35:17;;;;;;;50.42;26.85;;;;;;;-1.63;82.63;102386.06;4935407;29;20036;-73
2022/03/10 04:37:44;;;;;;;50.80;26.70;;;;;;;-1.64;82.09;102397.88;4935128;28;20477;-74
2022/03/10 04:40:09;;;;;;;53.13;27.45;;;;;;;-1.68;82.60;102400.34;4935215;29;20040;-72
2022/03/10 04:42:37;;;;;;;53.65;27.73;;;;;;;-1.90;82.51;102373.91;4935144;28;20143;-75
2022/03/10 04:45:04;;;;;;;50.47;27.50;;;;;;;-1.90;82.92;102373.91;4935220;28;20036;-73
2022/03/10 04:47:29;;;;;;;51.20;27.20;;;;;;;-1.81;83.03;102391.75;4935287;29;20167;-72
2022/03/10 04:49:56;;;;;;;56.40;29.42;;;;;;;-1.97;83.42;102384.78;4935172;29;20114;-73
2022/03/10 04:52:25;;;;;;;54.78;27.40;;;;;;;-1.86;83.56;102400.97;4935249;29;20031;-73
2022/03/10 04:54:50;;;;;;;50.15;26.55;;;;;;;-1.88;83.16;102395.88;4934980;29;20032;-75
2022/03/10 04:57:15;;;;;;;50.55;27.13;;;;;;;-1.84;83.38;102402.69;4965521;28;20052;-73
2022/03/10 04:59:41;;;;;;;49.03;26.60;;;;;;;-1.82;82.88;102395.97;4935014;29;20027;-76
2022/03/10 05:02:06;;;;;;;49.95;27.08;;;;;;;-1.82;82.81;102397.66;4935060;28;20032;-76
2022/03/10 05:04:31;;;;;;;52.85;26.90;;;;;;;-1.94;82.71;102384.84;4935079;29;20051;-71
2022/03/10 05:06:57;;;;;;;47.90;25.75;;;;;;;-1.84;82.65;102396.78;4935370;29;20027;-72
2022/03/10 05:09:22;;;;;;;53.88;26.65;;;;;;;-1.93;83.08;102392.44;4934910;29;20027;-72
2022/03/10 05:11:47;;;;;;;51.05;28.05;;;;;;;-1.81;83.02;102402.72;4938570;29;20099;-73
2022/03/10 05:14:12;;;;;;;51.70;27.67;;;;;;;-2.09;82.94;102365.22;4938723;29;20059;-72
2022/03/10 05:16:38;;;;;;;50.53;27.02;;;;;;;-2.18;82.73;102348.22;4938679;29;20046;-74
2022/03/10 05:19:03;;;;;;;54.53;27.15;;;;;;;-1.85;83.05;102403.53;4938544;29;20038;-74
2022/03/10 05:21:28;;;;;;;50.70;26.48;;;;;;;-1.93;82.74;102402.56;4938712;28;20540;-75
2022/03/10 05:23:54;;;;;;;55.20;28.58;;;;;;;-1.97;83.50;102403.34;4938708;28;20024;-73
2022/03/10 05:26:19;;;;;;;52.05;28.73;;;;;;;-2.09;83.11;102393.91;4938438;29;20035;-75
2022/03/10 05:28:45;;;;;;;51.05;26.90;;;;;;;-2.02;83.34;102408.34;4938408;29;20047;-74
2022/03/10 05:31:10;;;;;;;52.05;27.25;;;;;;;-1.99;83.88;102415.13;4938309;29;20079;-74
2022/03/10 05:33:35;;;;;;;55.10;28.38;;;;;;;-2.13;83.30;102389.63;4938189;29;20050;-73
2022/03/10 05:36:01;;;;;;;50.17;27.27;;;;;;;-2.11;83.84;102394.72;4938184;29;20035;-75
2022/03/10 05:38:26;;;;;;;50.85;26.10;;;;;;;-1.99;83.65;102416.81;4938548;29;20532;-75
2022/03/10 05:40:52;;;;;;;50.63;27.33;;;;;;;-2.02;83.38;102404.97;4938312;29;20032;-72
2022/03/10 05:43:18;;;;;;;48.50;26.25;;;;;;;-2.08;84.06;102410.78;4938285;28;20027;-84
2022/03/10 05:45:43;;;;;;;49.22;26.70;;;;;;;-2.10;84.14;102404.84;4938316;28;20031;-84
2022/03/10 05:48:09;;;;;;;49.88;27.65;;;;;;;-2.13;84.50;102414.94;4938228;29;20465;-83
2022/03/10 05:50:35;;;;;;;51.53;28.48;;;;;;;-2.15;84.71;102405.63;4937963;29;20027;-81
2022/03/10 05:53:01;;;;;;;52.83;28.50;;;;;;;-2.34;84.48;102380.06;4938211;29;20136;-85
2022/03/10 05:55:26;;;;;;;50.58;26.15;;;;;;;-2.14;84.35;102403.13;4938333;29;20028;-81
2022/03/10 05:57:52;;;;;;;52.55;27.55;;;;;;;-2.14;84.64;102397.22;4938154;29;20056;-79
2022/03/10 06:00:18;;;;;;;51.90;28.20;;;;;;;-2.18;84.39;102387.84;4938130;29;20079;-78
2022/03/10 06:02:44;;;;;;;54.88;27.83;;;;;;;-2.27;84.59;102378.44;4938057;29;20028;-83
2022/03/10 06:05:09;;;;;;;58.20;28.20;;;;;;;-2.23;84.25;102376.84;4937683;29;20397;-83
2022/03/10 06:07:34;;;;;;;53.05;28.10;;;;;;;-2.32;84.79;102370.81;4937791;29;20031;-82
2022/03/10 06:10:00;;;;;;;52.42;27.75;;;;;;;-2.11;84.87;102408.22;4937833;29;20038;-83
2022/03/10 06:12:27;;;;;;;54.63;27.52;;;;;;;-2.21;84.57;102377.69;4938068;29;20039;-82
2022/03/10 06:14:53;;;;;;;55.30;27.95;;;;;;;-2.14;84.54;102380.34;4937652;29;20059;-80
2022/03/10 06:17:20;;;;;;;59.17;27.65;;;;;;;-1.93;84.32;102407.63;4937734;29;20024;-83
2022/03/10 06:19:46;;;;;;;50.67;27.42;;;;;;;-1.91;83.79;102400.91;4937632;29;20023;-81
2022/03/10 06:22:15;;;;;;;50.45;27.35;;;;;;;-1.87;84.31;102405.19;4936468;29;20034;-83
2022/03/10 06:24:40;;;;;;;55.95;26.95;;;;;;;-1.80;83.59;102403.56;4937875;29;20070;-81
2022/03/10 06:27:06;;;;;;;54.92;27.83;;;;;;;-1.70;83.70;102407.06;4937411;29;20047;-81
2022/03/10 06:29:31;;;;;;;56.00;26.65;;;;;;;-1.78;83.40;102386.72;4937558;29;20355;-74
2022/03/10 06:31:56;;;;;;;47.88;25.75;;;;;;;-1.56;82.97;102418.25;4937508;29;20542;-83
2022/03/10 06:34:22;;;;;;;53.05;26.73;;;;;;;-1.67;82.46;102387.72;4937803;29;20107;-84
2022/03/10 06:36:48;;;;;;;53.72;27.48;;;;;;;-1.52;82.67;102410.69;4937328;28;20027;-88
2022/03/10 06:39:13;;;;;;;56.15;27.15;;;;;;;-1.48;81.79;102398.91;4937156;28;20465;-81
2022/03/10 06:41:39;;;;;;;53.13;28.27;;;;;;;-1.23;81.79;102428.78;4936975;29;20039;-81
2022/03/10 06:44:05;;;;;;;54.00;27.83;;;;;;;-1.14;81.39;102422.97;4937159;29;20023;-73
2022/03/10 06:46:31;;;;;;;47.60;26.48;;;;;;;-1.05;81.17;102430.66;4937372;29;20484;-74
2022/03/10 06:48:56;;;;;;;54.38;27.20;;;;;;;-1.06;80.75;102407.84;4937260;28;20054;-73
2022/03/10 06:51:21;;;;;;;54.78;28.52;;;;;;;-0.87;80.67;102423.25;4937104;29;20473;-76
2022/03/10 06:53:47;;;;;;;48.92;27.60;;;;;;;-0.79;80.42;102430.06;4936990;29;20027;-77
2022/03/10 06:56:12;;;;;;;51.90;26.02;;;;;;;-0.70;80.79;102433.53;4937122;29;20051;-74
2022/03/10 06:58:37;;;;;;;51.70;27.50;;;;;;;-0.63;80.45;102432.78;4936751;29;20114;-75
2022/03/10 07:01:03;;;;;;;52.75;26.02;;;;;;;-0.63;79.29;102414.16;4936712;29;20104;-82
2022/03/10 07:03:28;;;;;;;51.70;26.33;;;;;;;-0.40;79.09;102430.41;4937198;29;20381;-80
2022/03/10 07:05:54;;;;;;;57.53;26.45;;;;;;;-0.30;79.05;102436.41;4936853;29;20147;-76
2022/03/10 07:08:19;;;;;;;49.58;27.00;;;;;;;-0.20;78.92;102429.72;4936805;29;20102;-81
2022/03/10 07:10:44;;;;;;;47.55;25.00;;;;;;;-0.08;78.33;102433.22;4936759;29;20027;-82
2022/03/10 07:13:10;;;;;;;50.25;26.83;;;;;;;-0.11;78.24;102425.56;4936593;29;20102;-81
2022/03/10 07:15:35;;;;;;;48.58;27.13;;;;;;;0.10;78.21;102441.75;4936478;28;20030;-78
2022/03/10 07:18:01;;;;;;;49.67;26.98;;;;;;;0.20;77.72;102438.47;4936515;29;20066;-73
2022/03/10 07:20:26;;;;;;;50.20;25.45;;;;;;;0.31;77.58;102441.06;4936657;28;20055;-70
2022/03/10 07:22:52;;;;;;;52.75;26.98;;;;;;;0.28;77.32;102412.22;4936585;29;20470;-73
2022/03/10 07:25:17;;;;;;;50.80;27.67;;;;;;;0.34;76.95;102405.50;4936460;29;20103;-73
2022/03/10 07:27:43;;;;;;;51.67;27.52;;;;;;;0.52;75.92;102411.50;4936277;29;20045;-79
2022/03/10 07:30:08;;;;;;;51.13;26.88;;;;;;;0.76;75.76;102427.69;4936222;29;20035;-80
2022/03/10 07:32:34;;;;;;;53.65;27.70;;;;;;;0.70;74.78;102400.56;4936187;29;20505;-81
2022/03/10 07:35:00;;;;;;;53.65;27.70;;;;;;;0.88;74.59;102407.38;4936417;29;20106;-72
2022/03/10 07:37:26;;;;;;;58.60;29.75;;;;;;;0.95;74.37;102409.09;4936240;29;20515;-81
2022/03/10 07:39:51;;;;;;;52.20;28.52;;;;;;;0.96;74.38;102387.91;4936025;29;20019;-73
2022/03/10 07:42:17;;;;;;;50.10;27.25;;;;;;;1.31;73.72;102425.28;4935935;29;20028;-80
2022/03/10 07:44:43;;;;;;;49.72;26.42;;;;;;;1.35;73.04;102416.78;4936033;29;20035;-73
2022/03/10 07:47:09;;;;;;;50.15;26.58;;;;;;;1.51;72.28;102422.75;4936415;29;20056;-82
2022/03/10 07:49:34;;;;;;;47.83;25.75;;;;;;;1.68;71.52;102421.88;4936111;29;20160;-75
2022/03/10 07:52:00;;;;;;;51.58;26.27;;;;;;;1.67;71.71;102409.13;4949507;29;20123;-76
2022/03/10 07:54:26;;;;;;;50.35;27.67;;;;;;;1.78;71.47;102402.34;4935934;29;20030;-83
2022/03/10 07:56:52;;;;;;;44.80;24.92;;;;;;;2.00;70.71;102418.44;4935990;28;20028;-78
2022/03/10 07:59:18;;;;;;;47.30;25.75;;;;;;;2.08;70.57;102426.09;4935947;29;20381;-81
2022/03/10 08:01:43;;;;;;;47.97;26.60;;;;;;;2.13;70.22;102421.81;4936050;29;20020;-79
2022/03/10 08:04:08;;;;;;;47.20;25.80;;;;;;;2.17;70.02;102408.22;4935937;29;20075;-74
2022/03/10 08:06:34;;;;;;;46.75;26.70;;;;;;;2.35;69.83;102420.03;4935841;29;20133;-80
2022/03/10 08:09:01;;;;;;;50.35;26.75;;;;;;;2.48;69.10;102430.19;4935893;29;20031;-75
2022/03/10 08:11:27;;;;;;;50.25;26.45;;;;;;;2.58;69.52;102423.38;4935564;29;20036;-77
2022/03/10 08:13:53;;;;;;;47.05;26.13;;;;;;;2.60;69.15;102419.09;4966435;28;20035;-75
2022/03/10 08:16:18;;;;;;;50.70;26.73;;;;;;;2.70;69.06;102419.91;4935639;29;20047;-81
2022/03/10 08:18:45;;;;;;;49.08;27.60;;;;;;;2.85;68.28;102435.13;4935612;29;20035;-83
2022/03/10 08:21:11;;;;;;;45.78;26.52;;;;;;;2.91;68.01;102422.34;4935652;29;20028;-82
2022/03/10 08:23:36;;;;;;;46.63;25.15;;;;;;;3.02;68.45;102428.22;4935656;29;20034;-76
2022/03/10 08:26:01;;;;;;;46.80;25.15;;;;;;;2.98;68.10;102413.81;4935450;29;20107;-80
2022/03/10 08:28:27;;;;;;;46.05;25.88;;;;;;;3.23;67.69;102427.25;4935319;29;20039;-76
2022/03/10 08:30:52;;;;;;;47.10;26.38;;;;;;;3.27;67.30;102421.28;4935666;28;20031;-81
2022/03/10 08:33:18;;;;;;;47.72;26.08;;;;;;;3.39;67.14;102423.72;4935337;29;20054;-80
2022/03/10 08:35:43;;;;;;;47.72;25.65;;;;;;;3.51;66.73;102420.22;4935453;29;20028;-78
2022/03/10 08:38:08;;;;;;;51.10;25.73;;;;;;;3.58;66.69;102416.75;4935346;28;20043;-79
2022/03/10 08:40:34;;;;;;;46.65;26.00;;;;;;;3.70;66.50;102418.34;4935227;29;20031;-81
2022/03/10 08:43:00;;;;;;;45.88;25.73;;;;;;;3.61;66.36;102378.41;4935231;28;20034;-80
2022/03/10 08:45:25;;;;;;;45.85;25.98;;;;;;;3.92;66.16;102411.34;4938858;29;20023;-77
2022/03/10 08:47:51;;;;;;;50.55;27.02;;;;;;;4.02;65.67;102410.38;4941684;29;20031;-79
2022/03/10 08:50:16;;;;;;;48.03;25.45;;;;;;;4.03;65.87;102387.38;4941811;29;20601;-76
2022/03/10 08:52:42;;;;;;;46.78;26.58;;;;;;;4.21;64.82;102403.34;4941488;29;20031;-80
2022/03/10 08:55:08;;;;;;;43.75;25.23;;;;;;;4.34;65.51;102406.63;4941679;29;20024;-76
2022/03/10 08:57:34;;;;;;;48.47;26.42;;;;;;;4.44;64.92;102406.50;4941600;28;20043;-75
2022/03/10 08:59:59;;;;;;;44.15;23.83;;;;;;;4.53;64.13;102410.66;4941822;29;20027;-78
2022/03/10 09:02:24;;;;;;;46.47;26.13;;;;;;;4.42;64.04;102371.56;4941898;29;20425;-75
2022/03/10 09:04:50;;;;;;;46.08;25.92;;;;;;;4.69;63.96;102401.06;4941801;28;20028;-75
2022/03/10 09:07:15;;;;;;;46.22;26.48;;;;;;;4.77;63.72;102401.81;4941498;29;20032;-75
2022/03/10 09:09:41;;;;;;;48.03;25.15;;;;;;;4.78;63.79;102381.31;4941665;29;20024;-75
2022/03/10 09:12:07;;;;;;;46.40;26.15;;;;;;;4.99;63.31;102395.50;4941545;29;20108;-77
2022/03/10 09:14:32;;;;;;;48.45;27.42;;;;;;;5.11;63.56;102395.34;4941659;28;20568;-83
2022/03/10 09:16:57;;;;;;;54.03;26.88;;;;;;;5.12;63.06;102381.69;4941604;28;20027;-82
2022/03/10 09:19:23;;;;;;;48.78;26.40;;;;;;;5.19;63.46;102372.16;4941618;29;20027;-84
2022/03/10 09:21:48;;;;;;;46.80;26.30;;;;;;;5.41;63.42;102391.47;4941386;29;20485;-76
2022/03/10 09:24:14;;;;;;;50.70;25.52;;;;;;;5.51;62.49;102392.16;4941619;29;20059;-75
2022/03/10 09:26:39;;;;;;;46.63;25.55;;;;;;;5.62;62.15;102381.72;4941348;29;20117;-78
2022/03/10 09:29:05;;;;;;;47.90;26.10;;;;;;;5.70;62.47;102374.72;4941167;29;20032;-85
2022/03/10 09:31:31;;;;;;;46.30;24.15;;;;;;;5.78;62.67;102354.06;4941656;29;20070;-89
2022/03/10 09:33:57;;;;;;;46.53;24.45;;;;;;;5.71;61.12;102336.28;4941039;29;20135;-88
2022/03/10 09:36:23;;;;;;;48.67;26.05;;;;;;;6.03;61.78;102368.16;4941331;29;20036;-78
2022/03/10 09:38:48;;;;;;;46.35;25.73;;;;;;;6.18;60.92;102360.16;4941326;29;20039;-76
2022/03/10 09:41:16;;;;;;;47.05;25.02;;;;;;;6.35;60.87;102364.09;4941300;29;20086;-77
2022/03/10 09:43:41;;;;;;;46.63;24.63;;;;;;;6.24;60.26;102326.69;4941236;29;20035;-74
2022/03/10 09:46:10;;;;;;;45.22;24.92;;;;;;;6.61;60.15;102365.25;4941051;29;20031;-74
2022/03/10 09:48:40;;;;;;;45.63;24.75;;;;;;;6.54;59.46;102332.03;4941096;29;20094;-75
2022/03/10 09:51:06;;;;;;;45.97;24.10;;;;;;;6.76;60.18;102358.06;4941219;29;20103;-75
2022/03/10 09:53:34;;;;;;;46.63;24.88;;;;;;;6.64;59.31;102315.56;4941207;29;20100;-75
2022/03/10 09:56:00;;;;;;;42.08;23.00;;;;;;;6.93;59.04;102353.41;4940637;29;20072;-75
2022/03/10 09:58:26;;;;;;;43.83;23.08;;;;;;;7.12;58.64;102358.94;4938046;29;20042;-76
2022/03/10 10:00:58;;;;;;;44.45;23.00;;;;;;;7.03;57.72;102324.06;4938066;28;20036;-74
2022/03/10 10:03:23;;;;;;;41.10;23.40;;;;;;;7.30;57.68;102353.38;4938103;28;20054;-74
2022/03/10 10:05:48;;;;;;;43.63;23.23;;;;;;;7.31;58.14;102351.63;4938040;29;20538;-73
2022/03/10 10:08:17;;;;;;;45.75;23.90;;;;;;;7.30;57.35;102343.09;4938157;28;20040;-74
2022/03/10 10:10:53;;;;;;;39.47;21.20;;;;;;;7.51;57.84;102351.97;4937794;29;20504;-74
2022/03/10 10:13:27;;;;;;;41.13;22.45;;;;;;;7.73;57.37;102357.38;4937775;29;20040;-73
2022/03/10 10:15:56;;;;;;;45.22;23.95;;;;;;;7.84;57.35;102344.25;4937623;29;20039;-73
2022/03/10 10:18:22;;;;;;;43.97;23.17;;;;;;;7.91;56.42;102340.63;4937620;29;20064;-73
2022/03/10 10:20:50;;;;;;;44.58;23.02;;;;;;;7.94;56.54;102338.81;4937774;29;20051;-74
2022/03/10 10:23:21;;;;;;;40.10;22.52;;;;;;;7.98;56.25;102342.16;4968454;28;20102;-76
2022/03/10 10:25:58;;;;;;;39.38;22.50;;;;;;;8.05;56.14;102343.66;4937516;29;20058;-74
2022/03/10 10:28:35;;;;;;;45.38;24.88;;;;;;;8.07;56.21;102333.34;4937753;29;20079;-74
2022/03/10 10:31:03;;;;;;;42.40;23.90;;;;;;;8.16;56.44;102338.19;4937408;29;20504;-74
2022/03/10 10:33:32;;;;;;;40.83;23.38;;;;;;;8.12;55.65;102318.59;4937406;28;20075;-78
2022/03/10 10:36:24;;;;;;;48.88;23.27;;;;;;;8.26;56.68;102326.78;4937441;28;20028;-73
2022/03/10 10:38:51;;;;;;;41.00;22.33;;;;;;;8.44;55.52;102321.09;4937473;29;20043;-75
2022/03/10 10:41:30;;;;;;;42.78;24.55;;;;;;;8.44;56.11;102322.81;4937425;28;20039;-73
2022/03/10 10:43:57;;;;;;;40.60;23.70;;;;;;;8.46;55.88;102318.50;4937376;29;20036;-73
2022/03/10 10:46:28;;;;;;;45.63;23.50;;;;;;;8.52;55.82;102313.97;4937022;29;20027;-75
2022/03/10 10:48:54;;;;;;;43.55;24.05;;;;;;;8.49;55.63;102297.78;4937222;29;20035;-75
2022/03/10 10:51:29;;;;;;;44.15;24.17;;;;;;;8.61;55.72;102303.41;4937185;29;20522;-73
2022/03/10 10:53:55;;;;;;;46.67;24.67;;;;;;;8.59;55.50;102294.03;4967990;28;20551;-75
2022/03/10 10:56:21;;;;;;;42.60;24.33;;;;;;;8.79;56.62;102311.44;4937255;29;20114;-74
2022/03/10 10:58:47;;;;;;;42.78;24.23;;;;;;;8.95;55.64;102316.94;4936867;29;20027;-74
2022/03/10 11:01:33;;;;;;;39.10;23.92;;;;;;;9.05;55.49;102316.59;4936827;29;20552;-75
2022/03/10 11:03:59;;;;;;;42.13;23.17;;;;;;;9.15;55.06;102315.41;4937119;29;20162;-73
2022/03/10 11:06:25;;;;;;;41.75;24.92;;;;;;;9.19;55.31;102309.25;4936932;28;20034;-81
2022/03/10 11:08:52;;;;;;;41.85;23.83;;;;;;;9.22;54.36;102299.72;4936355;29;20030;-73
2022/03/10 11:11:20;;;;;;;42.10;23.92;;;;;;;9.26;54.44;102303.91;4936824;29;20024;-76
2022/03/10 11:13:46;;;;;;;48.00;25.08;;;;;;;9.02;54.64;102261.72;4967404;28;20500;-81